createdAt,value
2022-09-12T00:01:25.726Z,13.00
2022-09-12T00:03:55.012Z,12.90
2022-09-12T00:06:25.287Z,13.00
2022-09-12T00:08:55.962Z,13.00
2022-09-12T00:11:24.271Z,13.00
2022-09-12T00:13:57.437Z,13.10
2022-09-12T00:16:27.538Z,13.00
2022-09-12T00:18:55.925Z,12.90
2022-09-12T00:21:24.950Z,12.90
2022-09-12T00:23:53.315Z,12.80
2022-09-12T00:26:22.430Z,12.80
2022-09-12T00:28:51.125Z,12.80
2022-09-12T00:31:23.873Z,12.70
2022-09-12T00:33:53.149Z,12.70
2022-09-12T00:36:24.221Z,12.80
2022-09-12T00:38:54.981Z,12.80
2022-09-12T00:41:24.979Z,12.80
2022-09-12T00:43:55.479Z,12.80
2022-09-12T00:46:38.565Z,12.80
2022-09-12T00:49:20.160Z,12.60
2022-09-12T00:51:51.361Z,12.60
2022-09-12T00:54:25.371Z,12.50
2022-09-12T00:56:55.923Z,12.40
2022-09-12T00:59:28.591Z,12.40
2022-09-12T01:01:58.416Z,12.50
2022-09-12T01:04:28.614Z,12.50
2022-09-12T01:06:58.089Z,12.60
2022-09-12T01:09:26.744Z,12.50
2022-09-12T01:11:55.996Z,12.50
2022-09-12T01:14:24.388Z,12.40
2022-09-12T01:16:52.680Z,12.40
2022-09-12T01:20:08.848Z,12.50
2022-09-12T01:23:05.629Z,12.50
2022-09-12T01:25:48.666Z,12.50
2022-09-12T01:28:35.061Z,12.60
2022-09-12T01:31:09.225Z,12.50
2022-09-12T01:33:52.775Z,12.40
2022-09-12T01:36:38.956Z,12.40
2022-09-12T01:39:12.439Z,12.30
2022-09-12T01:41:54.475Z,12.20
2022-09-12T01:44:30.771Z,12.10
2022-09-12T01:47:08.460Z,12.10
2022-09-12T01:49:41.433Z,12.00
2022-09-12T01:52:16.490Z,12.00
2022-09-12T01:54:48.420Z,12.10
2022-09-12T01:57:25.095Z,12.10
2022-09-12T01:59:58.407Z,12.10
2022-09-12T02:02:32.500Z,12.10
2022-09-12T02:05:06.627Z,12.00
2022-09-12T02:07:40.228Z,12.10
2022-09-12T02:10:13.719Z,12.00
2022-09-12T02:12:47.429Z,12.10
2022-09-12T02:15:18.680Z,12.10
2022-09-12T02:17:51.326Z,12.10
2022-09-12T02:20:44.308Z,12.10
2022-09-12T02:23:14.901Z,12.10
2022-09-12T02:25:46.270Z,12.00
2022-09-12T02:28:19.561Z,11.90
2022-09-12T02:31:02.371Z,11.90
2022-09-12T02:33:38.038Z,11.80
2022-09-12T02:36:14.424Z,11.80
2022-09-12T02:38:46.996Z,11.80
2022-09-12T02:41:19.772Z,11.80
2022-09-12T02:43:48.696Z,11.80
2022-09-12T02:46:22.491Z,11.70
2022-09-12T02:48:52.221Z,11.70
2022-09-12T02:51:23.630Z,11.60
2022-09-12T02:53:52.521Z,11.60
2022-09-12T02:56:27.276Z,11.50
2022-09-12T02:58:57.797Z,11.50
2022-09-12T03:01:42.230Z,11.60
2022-09-12T03:04:37.988Z,11.50
2022-09-12T03:07:13.996Z,11.70
2022-09-12T03:09:48.993Z,11.70
2022-09-12T03:12:31.142Z,11.70
2022-09-12T03:15:20.122Z,11.70
2022-09-12T03:17:58.577Z,11.70
2022-09-12T03:20:44.438Z,11.70
2022-09-12T03:23:21.601Z,11.60
2022-09-12T03:25:54.339Z,11.60
2022-09-12T03:28:24.300Z,11.60
2022-09-12T03:30:54.439Z,11.70
2022-09-12T03:33:24.486Z,11.70
2022-09-12T03:35:54.997Z,11.70
2022-09-12T03:38:23.417Z,11.60
2022-09-12T03:40:54.693Z,11.50
2022-09-12T03:43:23.303Z,11.50
2022-09-12T03:45:53.456Z,11.50
2022-09-12T03:48:22.502Z,11.60
2022-09-12T03:50:53.364Z,11.70
2022-09-12T03:53:22.973Z,11.60
2022-09-12T03:55:51.028Z,11.50
2022-09-12T03:58:18.991Z,11.40
2022-09-12T04:00:47.065Z,11.40
2022-09-12T04:03:15.133Z,11.30
2022-09-12T04:05:43.220Z,11.40
2022-09-12T04:08:11.183Z,11.40
2022-09-12T04:10:41.090Z,11.40
2022-09-12T04:13:09.056Z,11.30
2022-09-12T04:15:37.210Z,11.30
2022-09-12T04:18:06.200Z,11.20
2022-09-12T04:20:34.528Z,11.20
2022-09-12T04:23:02.460Z,11.20
2022-09-12T04:25:31.590Z,11.20
2022-09-12T04:28:00.884Z,11.10
2022-09-12T04:30:29.401Z,11.00
2022-09-12T04:32:57.732Z,11.00
2022-09-12T04:35:25.685Z,11.00
2022-09-12T04:37:53.790Z,11.00
2022-09-12T04:40:22.098Z,10.90
2022-09-12T04:42:50.111Z,10.90
2022-09-12T04:45:19.817Z,10.90
2022-09-12T04:47:47.822Z,10.90
2022-09-12T04:50:16.073Z,10.80
2022-09-12T04:52:44.173Z,10.70
2022-09-12T04:55:12.304Z,10.70
2022-09-12T04:57:40.332Z,10.70
2022-09-12T05:00:11.624Z,10.70
2022-09-12T05:02:41.068Z,10.70
2022-09-12T05:05:12.100Z,10.70
2022-09-12T05:07:40.154Z,10.70
2022-09-12T05:10:09.552Z,10.80
2022-09-12T05:12:37.836Z,10.80
2022-09-12T05:15:07.168Z,10.80
2022-09-12T05:17:35.424Z,10.80
2022-09-12T05:20:05.722Z,10.90
2022-09-12T05:22:33.610Z,10.90
2022-09-12T05:25:01.776Z,10.90
2022-09-12T05:27:29.839Z,10.90
2022-09-12T05:29:57.821Z,11.00
2022-09-12T05:32:25.900Z,11.00
2022-09-12T05:34:54.179Z,10.90
2022-09-12T05:37:23.786Z,10.90
2022-09-12T05:40:00.488Z,11.00
2022-09-12T05:42:31.102Z,11.00
2022-09-12T05:44:59.362Z,11.10
2022-09-12T05:47:27.337Z,11.10
2022-09-12T05:49:55.942Z,11.20
2022-09-12T05:52:25.612Z,11.10
2022-09-12T05:54:53.742Z,11.10
2022-09-12T05:57:21.895Z,11.20
2022-09-12T05:59:50.707Z,11.20
2022-09-12T06:02:18.704Z,11.30
2022-09-12T06:04:47.033Z,11.30
2022-09-12T06:07:17.597Z,11.40
2022-09-12T06:09:47.182Z,11.50
2022-09-12T06:12:15.238Z,11.50
2022-09-12T06:14:43.386Z,11.60
2022-09-12T06:17:13.303Z,11.80
2022-09-12T06:19:41.306Z,11.80
2022-09-12T06:22:09.872Z,11.90
2022-09-12T06:24:38.359Z,12.10
2022-09-12T06:27:07.759Z,12.10
2022-09-12T06:29:35.713Z,12.10
2022-09-12T06:32:04.700Z,12.20
2022-09-12T06:34:33.791Z,12.30
2022-09-12T06:37:03.841Z,12.30
2022-09-12T06:39:32.561Z,12.60
2022-09-12T06:42:01.096Z,12.60
2022-09-12T06:44:31.651Z,12.50
2022-09-12T06:46:59.724Z,12.50
2022-09-12T06:49:28.098Z,12.60
2022-09-12T06:51:56.358Z,12.70
2022-09-12T06:54:26.509Z,12.90
2022-09-12T06:56:54.588Z,13.10
2022-09-12T06:59:24.902Z,13.00
2022-09-12T07:01:54.573Z,13.30
2022-09-12T07:04:24.451Z,13.30
2022-09-12T07:06:52.966Z,13.30
2022-09-12T07:09:21.100Z,13.40
2022-09-12T07:11:49.339Z,13.70
2022-09-12T07:14:17.368Z,13.80
2022-09-12T07:16:48.590Z,13.90
2022-09-12T07:19:17.956Z,13.90
2022-09-12T07:21:46.144Z,14.00
2022-09-12T07:24:14.130Z,14.10
2022-09-12T07:26:44.116Z,14.30
2022-09-12T07:32:05.906Z,14.70
2022-09-12T07:34:36.777Z,14.70
2022-09-12T07:37:05.114Z,14.70
2022-09-12T07:39:33.545Z,15.00
2022-09-12T07:42:04.212Z,15.30
2022-09-12T07:44:34.310Z,15.40
2022-09-12T07:47:02.789Z,15.60
2022-09-12T07:49:32.628Z,15.70
2022-09-12T07:52:02.656Z,16.00
2022-09-12T07:54:33.707Z,16.20
2022-09-12T07:57:02.064Z,16.30
2022-09-12T07:59:51.448Z,16.50
2022-09-12T08:02:19.231Z,16.70
2022-09-12T08:04:49.138Z,16.90
2022-09-12T08:07:19.536Z,16.80
2022-09-12T08:09:48.451Z,17.00
2022-09-12T08:12:17.851Z,17.20
2022-09-12T08:14:46.183Z,17.30
2022-09-12T08:17:14.819Z,17.30
2022-09-12T08:19:43.683Z,17.50
2022-09-12T08:22:12.286Z,17.70
2022-09-12T08:24:41.726Z,17.80
2022-09-12T08:27:10.631Z,18.10
2022-09-12T08:29:38.613Z,18.20
2022-09-12T08:32:06.873Z,18.40
2022-09-12T08:34:34.796Z,18.60
2022-09-12T08:37:04.640Z,18.70
2022-09-12T08:39:33.658Z,19.00
2022-09-12T08:42:07.337Z,19.20
2022-09-12T08:44:49.797Z,19.20
2022-09-12T08:47:28.942Z,19.30
2022-09-12T08:50:06.637Z,19.60
2022-09-12T08:52:40.699Z,19.90
2022-09-12T08:55:26.770Z,20.00
2022-09-12T08:58:00.553Z,19.80
2022-09-12T09:00:38.111Z,20.10
2022-09-12T09:03:27.917Z,20.40
2022-09-12T09:06:06.821Z,20.60
2022-09-12T09:08:53.113Z,20.80
2022-09-12T09:11:38.824Z,21.10
2022-09-12T09:14:41.186Z,21.20
2022-09-12T09:17:13.469Z,21.30
2022-09-12T09:19:50.801Z,21.50
2022-09-12T09:22:33.179Z,21.60
2022-09-12T09:25:06.144Z,21.70
2022-09-12T09:27:41.216Z,21.90
2022-09-12T09:30:16.489Z,22.10
2022-09-12T09:32:48.898Z,22.20
2022-09-12T09:35:20.056Z,22.00
2022-09-12T09:38:01.435Z,22.30
2022-09-12T09:40:39.358Z,22.60
2022-09-12T09:43:18.383Z,22.90
2022-09-12T09:45:48.147Z,23.00
2022-09-12T09:48:20.151Z,23.00
2022-09-12T09:50:53.068Z,22.60
2022-09-12T09:53:35.720Z,22.70
2022-09-12T09:56:08.744Z,23.00
2022-09-12T09:58:42.961Z,22.80
2022-09-12T10:01:18.185Z,22.40
2022-09-12T10:03:51.688Z,22.70
2022-09-12T10:06:32.351Z,23.00
2022-09-12T10:09:18.527Z,22.90
2022-09-12T10:11:48.377Z,23.20
2022-09-12T10:14:38.205Z,23.40
2022-09-12T10:17:33.256Z,23.30
2022-09-12T10:20:21.698Z,23.40
2022-09-12T10:22:50.748Z,23.30
2022-09-12T10:25:21.160Z,23.30
2022-09-12T10:27:57.275Z,23.40
2022-09-12T10:30:28.504Z,23.70
2022-09-12T10:33:07.747Z,23.80
2022-09-12T10:35:47.206Z,23.90
2022-09-12T10:38:21.043Z,23.20
2022-09-12T10:40:58.112Z,23.60
2022-09-12T10:43:30.920Z,24.00
2022-09-12T10:45:59.952Z,24.20
2022-09-12T10:48:33.687Z,24.10
2022-09-12T10:51:03.168Z,24.10
2022-09-12T10:53:43.326Z,23.80
2022-09-12T10:56:13.674Z,24.20
2022-09-12T10:59:03.070Z,23.60
2022-09-12T11:01:40.647Z,23.40
2022-09-12T11:04:27.738Z,23.50
2022-09-12T11:07:34.661Z,23.60
2022-09-12T11:10:15.311Z,24.00
2022-09-12T11:12:53.650Z,23.60
2022-09-12T11:15:53.822Z,24.00
2022-09-12T11:18:37.343Z,24.40
2022-09-12T11:21:27.488Z,24.40
2022-09-12T11:24:21.052Z,24.40
2022-09-12T11:27:16.542Z,24.40
2022-09-12T11:29:50.643Z,24.40
2022-09-12T11:33:06.471Z,24.30
2022-09-12T11:35:35.648Z,24.10
2022-09-12T11:38:29.957Z,24.40
2022-09-12T11:41:04.974Z,24.60
2022-09-12T11:43:39.711Z,24.60
2022-09-12T11:46:15.092Z,24.00
2022-09-12T11:48:49.902Z,23.50
2022-09-12T11:51:21.554Z,23.20
2022-09-12T11:54:01.274Z,23.30
2022-09-12T11:56:29.545Z,23.50
2022-09-12T11:59:02.921Z,23.70
2022-09-12T12:01:41.305Z,24.00
2022-09-12T12:04:13.991Z,24.20
2022-09-12T12:06:52.318Z,24.60
2022-09-12T12:09:22.186Z,25.10
2022-09-12T12:11:54.532Z,25.40
2022-09-12T12:14:26.218Z,25.50
2022-09-12T12:16:54.559Z,25.50
2022-09-12T12:19:36.170Z,25.40
2022-09-12T12:22:09.482Z,25.40
2022-09-12T12:25:04.867Z,25.70
2022-09-12T12:27:54.059Z,24.90
2022-09-12T12:31:05.519Z,24.20
2022-09-12T12:34:16.322Z,24.50
2022-09-12T12:36:44.719Z,24.60
2022-09-12T12:40:02.973Z,24.90
2022-09-12T12:43:22.708Z,25.00
2022-09-12T12:46:05.187Z,24.70
2022-09-12T12:48:45.913Z,24.90
2022-09-12T12:51:34.291Z,24.40
2022-09-12T12:54:04.384Z,24.60
2022-09-12T12:56:41.050Z,24.40
2022-09-12T12:59:21.103Z,25.00
2022-09-12T13:01:55.491Z,25.40
2022-09-12T13:04:28.683Z,25.80
2022-09-12T13:07:04.576Z,25.90
2022-09-12T13:09:40.215Z,25.20
2022-09-12T13:12:12.012Z,24.60
2022-09-12T13:14:52.578Z,24.70
2022-09-12T13:17:27.160Z,25.00
2022-09-12T13:20:26.628Z,25.20
2022-09-12T13:22:54.236Z,25.30
2022-09-12T13:25:31.845Z,24.90
2022-09-12T13:28:18.459Z,25.10
2022-09-12T13:30:49.853Z,25.30
2022-09-12T13:33:24.677Z,25.10
2022-09-12T13:36:28.883Z,25.40
2022-09-12T13:39:12.377Z,25.70
2022-09-12T13:42:07.569Z,25.50
2022-09-12T13:44:42.912Z,25.10
2022-09-12T13:47:14.685Z,24.80
2022-09-12T13:49:46.865Z,25.10
2022-09-12T13:52:21.782Z,24.90
2022-09-12T13:54:53.348Z,25.00
2022-09-12T13:57:33.508Z,25.00
2022-09-12T14:00:06.054Z,24.90
2022-09-12T14:02:37.507Z,25.10
2022-09-12T14:05:21.368Z,24.50
2022-09-12T14:07:55.296Z,24.50
2022-09-12T14:10:28.750Z,24.70
2022-09-12T14:12:57.471Z,24.50
2022-09-12T14:15:28.715Z,24.20
2022-09-12T14:18:01.525Z,24.20
2022-09-12T14:20:35.521Z,24.30
2022-09-12T14:23:07.670Z,24.20
2022-09-12T14:25:41.495Z,24.70
2022-09-12T14:28:14.604Z,24.80
2022-09-12T14:30:42.805Z,24.60
2022-09-12T14:33:22.282Z,24.50
2022-09-12T14:35:53.934Z,24.40
2022-09-12T14:38:36.503Z,24.20
2022-09-12T14:41:09.441Z,24.00
2022-09-12T14:43:40.985Z,23.90
2022-09-12T14:46:19.662Z,24.00
2022-09-12T14:48:51.950Z,24.40
2022-09-12T14:51:26.497Z,24.30
2022-09-12T14:53:54.770Z,24.10
2022-09-12T14:56:23.705Z,24.00
2022-09-12T14:58:52.254Z,24.00
2022-09-12T15:01:25.983Z,24.30
2022-09-12T15:03:57.199Z,24.10
2022-09-12T15:06:30.604Z,24.00
2022-09-12T15:09:01.050Z,23.90
2022-09-12T15:11:29.528Z,23.90
2022-09-12T15:13:57.663Z,23.80
2022-09-12T15:16:25.839Z,23.90
2022-09-12T15:18:53.829Z,23.50
2022-09-12T15:21:22.235Z,23.40
2022-09-12T15:23:53.927Z,23.50
2022-09-12T15:26:24.286Z,23.60
2022-09-12T15:28:52.444Z,23.70
2022-09-12T15:31:26.196Z,23.60
2022-09-12T15:33:57.600Z,23.50
2022-09-12T15:36:26.505Z,23.40
2022-09-12T15:38:55.994Z,23.40
2022-09-12T15:41:27.729Z,23.30
2022-09-12T15:43:56.769Z,23.20
2022-09-12T15:46:24.976Z,23.10
2022-09-12T15:48:53.037Z,23.10
2022-09-12T15:51:23.029Z,23.20
2022-09-12T15:53:52.994Z,23.20
2022-09-12T15:56:23.792Z,23.20
2022-09-12T15:59:00.490Z,23.20
2022-09-12T16:01:29.865Z,23.30
2022-09-12T16:03:58.185Z,23.10
2022-09-12T16:06:27.174Z,23.10
2022-09-12T16:08:55.304Z,23.00
2022-09-12T16:11:28.396Z,22.80
2022-09-12T16:13:58.359Z,22.60
2022-09-12T16:16:26.979Z,22.70
2022-09-12T16:18:54.970Z,22.80
2022-09-12T16:21:24.382Z,22.80
2022-09-12T16:23:55.014Z,22.70
2022-09-12T16:26:24.731Z,22.50
2022-09-12T16:28:56.936Z,22.20
2022-09-12T16:31:25.544Z,22.20
2022-09-12T16:33:54.735Z,22.10
2022-09-12T16:36:24.094Z,21.80
2022-09-12T16:38:56.051Z,21.80
2022-09-12T16:41:26.676Z,21.40
2022-09-12T16:43:55.576Z,21.10
2022-09-12T16:46:25.613Z,21.20
2022-09-12T16:48:55.290Z,21.20
2022-09-12T16:51:26.840Z,21.30
2022-09-12T16:53:56.753Z,21.20
2022-09-12T16:56:26.619Z,21.10
2022-09-12T16:58:55.210Z,20.90
2022-09-12T17:01:27.780Z,20.70
2022-09-12T17:03:57.535Z,20.60
2022-09-12T17:06:26.752Z,20.50
2022-09-12T17:08:57.427Z,20.40
2022-09-12T17:11:30.571Z,20.30
2022-09-12T17:14:04.963Z,20.20
2022-09-12T17:16:35.181Z,20.20
2022-09-12T17:19:03.572Z,20.10
2022-09-12T17:21:31.480Z,19.90
2022-09-12T17:24:00.037Z,19.90
2022-09-12T17:26:29.386Z,19.80
2022-09-12T17:28:57.516Z,19.60
2022-09-12T17:31:26.554Z,19.50
2022-09-12T17:33:58.142Z,19.40
2022-09-12T17:36:26.769Z,19.30
2022-09-12T17:38:55.647Z,19.20
2022-09-12T17:41:27.400Z,19.00
2022-09-12T17:43:58.538Z,18.90
2022-09-12T17:46:28.671Z,18.90
2022-09-12T17:48:58.370Z,18.80
2022-09-12T17:51:30.534Z,18.70
2022-09-12T17:54:01.223Z,18.60
2022-09-12T17:56:31.495Z,18.60
2022-09-12T17:59:01.627Z,18.50
2022-09-12T18:01:48.201Z,18.30
2022-09-12T18:04:17.238Z,18.20
2022-09-12T18:06:50.919Z,18.20
2022-09-12T18:09:22.149Z,18.20
2022-09-12T18:11:51.488Z,18.00
2022-09-12T18:14:24.067Z,17.90
2022-09-12T18:16:52.408Z,17.90
2022-09-12T18:19:20.816Z,17.80
2022-09-12T18:21:49.403Z,17.80
2022-09-12T18:24:17.617Z,17.80
2022-09-12T18:26:45.806Z,17.80
2022-09-12T18:29:16.772Z,17.60
2022-09-12T18:31:47.417Z,17.60
2022-09-12T18:34:16.183Z,17.50
2022-09-12T18:36:45.918Z,17.60
2022-09-12T18:39:14.610Z,17.60
2022-09-12T18:41:42.984Z,17.60
2022-09-12T18:44:13.280Z,17.60
2022-09-12T18:46:41.654Z,17.60
2022-09-12T18:49:14.978Z,17.60
2022-09-12T18:51:52.178Z,17.50
2022-09-12T18:54:20.662Z,17.50
2022-09-12T18:56:48.934Z,17.30
2022-09-12T18:59:17.353Z,17.20
2022-09-12T19:01:46.259Z,17.10
2022-09-12T19:04:17.543Z,17.00
2022-09-12T19:06:47.387Z,16.90
2022-09-12T19:09:16.872Z,16.90
2022-09-12T19:11:50.039Z,16.80
2022-09-12T19:14:20.077Z,16.80
2022-09-12T19:16:48.343Z,16.70
2022-09-12T19:19:18.565Z,16.60
2022-09-12T19:21:47.366Z,16.60
2022-09-12T19:24:16.563Z,16.60
2022-09-12T19:26:44.823Z,16.70
2022-09-12T19:29:14.369Z,16.80
2022-09-12T19:31:42.892Z,16.80
2022-09-12T19:34:13.295Z,16.70
2022-09-12T19:36:46.317Z,16.70
2022-09-12T19:39:16.205Z,16.70
2022-09-12T19:41:44.773Z,16.70
2022-09-12T19:44:13.899Z,16.70
2022-09-12T19:46:42.180Z,16.80
2022-09-12T19:49:11.970Z,16.90
2022-09-12T19:51:40.306Z,17.00
2022-09-12T19:54:09.938Z,16.90
2022-09-12T19:56:38.393Z,16.90
2022-09-12T19:59:06.514Z,17.00
2022-09-12T20:01:36.953Z,16.90
2022-09-12T20:04:06.529Z,16.90
2022-09-12T20:06:34.881Z,16.90
2022-09-12T20:09:02.903Z,16.80
2022-09-12T20:11:32.478Z,16.70
2022-09-12T20:14:00.517Z,16.60
2022-09-12T20:16:30.073Z,16.50
2022-09-12T20:19:00.091Z,16.30
2022-09-12T20:21:31.659Z,16.30
2022-09-12T20:24:05.538Z,16.20
2022-09-12T20:26:35.146Z,16.30
2022-09-12T20:29:03.962Z,16.30
2022-09-12T20:31:33.313Z,16.20
2022-09-12T20:34:01.472Z,16.20
2022-09-12T20:36:29.757Z,16.20
2022-09-12T20:39:02.667Z,16.10
2022-09-12T20:41:32.807Z,16.20
2022-09-12T20:44:02.596Z,16.10
2022-09-12T20:46:30.462Z,16.10
2022-09-12T20:48:58.843Z,16.00
2022-09-12T20:51:29.620Z,16.00
2022-09-12T20:53:58.452Z,16.00
2022-09-12T20:56:27.445Z,16.00
2022-09-12T20:58:56.055Z,15.90
2022-09-12T21:01:26.311Z,15.80
2022-09-12T21:03:54.957Z,15.80
2022-09-12T21:06:23.431Z,15.80
2022-09-12T21:08:51.927Z,15.80
2022-09-12T21:11:21.142Z,15.90
2022-09-12T21:13:49.421Z,15.90
2022-09-12T21:16:18.826Z,15.90
2022-09-12T21:18:48.676Z,15.90
2022-09-12T21:21:17.081Z,15.90
2022-09-12T21:23:45.332Z,15.80
2022-09-12T21:26:13.529Z,15.80
2022-09-12T21:28:41.861Z,15.80
2022-09-12T21:31:10.071Z,15.70
2022-09-12T21:33:38.259Z,15.70
2022-09-12T21:36:08.664Z,15.70
2022-09-12T21:38:36.778Z,15.60
2022-09-12T21:41:09.862Z,15.60
2022-09-12T21:43:38.758Z,15.60
2022-09-12T21:46:08.234Z,15.50
2022-09-12T21:48:36.422Z,15.50
2022-09-12T21:51:04.718Z,15.40
2022-09-12T21:53:34.117Z,15.40
2022-09-12T21:56:03.618Z,15.40
2022-09-12T21:58:31.691Z,15.40
2022-09-12T22:01:00.422Z,15.40
2022-09-12T22:03:28.699Z,15.40
2022-09-12T22:06:00.007Z,15.50
2022-09-12T22:08:28.017Z,15.50
2022-09-12T22:11:00.864Z,15.40
2022-09-12T22:13:32.439Z,15.50
2022-09-12T22:16:03.561Z,15.40
2022-09-12T22:18:34.231Z,15.40
2022-09-12T22:21:03.859Z,15.40
2022-09-12T22:23:49.452Z,15.40
2022-09-12T22:26:18.762Z,15.30
2022-09-12T22:28:47.395Z,15.20
2022-09-12T22:31:16.378Z,15.30
2022-09-12T22:33:45.556Z,15.30
2022-09-12T22:36:13.819Z,15.30
2022-09-12T22:38:41.787Z,15.30
2022-09-12T22:41:13.051Z,15.30
2022-09-12T22:43:42.747Z,15.30
2022-09-12T22:46:13.203Z,15.30
2022-09-12T22:48:41.912Z,15.40
2022-09-12T22:51:10.549Z,15.20
2022-09-12T22:53:38.735Z,15.20
2022-09-12T22:56:07.718Z,15.20
2022-09-12T22:58:37.220Z,15.20
2022-09-12T23:01:07.390Z,15.10
2022-09-12T23:03:36.289Z,15.10
2022-09-12T23:06:05.017Z,15.10
2022-09-12T23:08:33.150Z,15.20
2022-09-12T23:11:02.448Z,15.20
2022-09-12T23:13:30.993Z,15.10
2022-09-12T23:16:00.076Z,15.10
2022-09-12T23:18:29.685Z,15.10
2022-09-12T23:20:59.410Z,15.10
2022-09-12T23:23:27.394Z,15.10
2022-09-12T23:26:06.108Z,15.00
2022-09-12T23:28:34.691Z,15.00
2022-09-12T23:31:03.311Z,15.10
2022-09-12T23:33:33.792Z,15.10
2022-09-12T23:36:03.047Z,15.10
2022-09-12T23:38:31.824Z,15.10
2022-09-12T23:41:00.474Z,15.10
2022-09-12T23:43:28.963Z,15.10
2022-09-12T23:45:56.938Z,15.10
2022-09-12T23:48:24.967Z,15.00
2022-09-12T23:50:54.898Z,15.10
2022-09-12T23:53:23.485Z,15.10
2022-09-12T23:55:51.653Z,15.00
2022-09-12T23:58:19.745Z,14.90
